sensor_id;sensor_type;location;lat;lon;timestamp;P1;durP1;ratioP1;P2;durP2;ratioP2
22417;SDS011;11376;50.932;4.442;2023-08-20T00:01:56;17.25;;;2.83;;
22417;SDS011;11376;50.932;4.442;2023-08-20T00:04:24;18.48;;;3.17;;
22417;SDS011;11376;50.932;4.442;2023-08-20T00:06:51;12.70;;;2.80;;
22417;SDS011;11376;50.932;4.442;2023-08-20T00:09:17;14.15;;;3.03;;
22417;SDS011;11376;50.932;4.442;2023-08-20T00:11:43;17.83;;;3.30;;
22417;SDS011;11376;50.932;4.442;2023-08-20T00:14:14;17.80;;;4.00;;
22417;SDS011;11376;50.932;4.442;2023-08-20T00:16:41;15.10;;;3.03;;
22417;SDS011;11376;50.932;4.442;2023-08-20T00:19:08;18.75;;;3.40;;
22417;SDS011;11376;50.932;4.442;2023-08-20T00:21:34;13.05;;;2.90;;
22417;SDS011;11376;50.932;4.442;2023-08-20T00:24:00;19.02;;;3.70;;
22417;SDS011;11376;50.932;4.442;2023-08-20T00:26:26;18.02;;;3.92;;
22417;SDS011;11376;50.932;4.442;2023-08-20T00:28:52;15.02;;;3.10;;
22417;SDS011;11376;50.932;4.442;2023-08-20T00:31:18;17.67;;;3.47;;
22417;SDS011;11376;50.932;4.442;2023-08-20T00:33:44;22.23;;;3.45;;
22417;SDS011;11376;50.932;4.442;2023-08-20T00:36:10;12.88;;;3.13;;
22417;SDS011;11376;50.932;4.442;2023-08-20T00:38:35;14.23;;;3.28;;
22417;SDS011;11376;50.932;4.442;2023-08-20T00:41:01;13.93;;;3.42;;
22417;SDS011;11376;50.932;4.442;2023-08-20T00:43:27;15.07;;;3.20;;
22417;SDS011;11376;50.932;4.442;2023-08-20T00:45:52;14.25;;;2.88;;
22417;SDS011;11376;50.932;4.442;2023-08-20T00:48:18;17.33;;;3.30;;
22417;SDS011;11376;50.932;4.442;2023-08-20T00:50:44;14.88;;;3.33;;
22417;SDS011;11376;50.932;4.442;2023-08-20T00:53:10;19.17;;;3.10;;
22417;SDS011;11376;50.932;4.442;2023-08-20T00:55:38;12.90;;;2.92;;
22417;SDS011;11376;50.932;4.442;2023-08-20T00:58:04;15.77;;;2.78;;
22417;SDS011;11376;50.932;4.442;2023-08-20T01:00:30;13.70;;;3.05;;
22417;SDS011;11376;50.932;4.442;2023-08-20T01:02:56;11.95;;;2.70;;
22417;SDS011;11376;50.932;4.442;2023-08-20T01:05:22;14.00;;;2.80;;
22417;SDS011;11376;50.932;4.442;2023-08-20T01:08:00;17.83;;;3.05;;
22417;SDS011;11376;50.932;4.442;2023-08-20T01:10:56;17.33;;;3.10;;
22417;SDS011;11376;50.932;4.442;2023-08-20T01:13:27;12.65;;;2.58;;
22417;SDS011;11376;50.932;4.442;2023-08-20T01:15:52;16.08;;;3.10;;
22417;SDS011;11376;50.932;4.442;2023-08-20T01:18:18;10.10;;;2.70;;
22417;SDS011;11376;50.932;4.442;2023-08-20T01:20:51;13.27;;;2.58;;
22417;SDS011;11376;50.932;4.442;2023-08-20T01:28:37;13.77;;;2.70;;
22417;SDS011;11376;50.932;4.442;2023-08-20T01:31:04;15.90;;;2.72;;
22417;SDS011;11376;50.932;4.442;2023-08-20T01:33:31;15.52;;;2.72;;
22417;SDS011;11376;50.932;4.442;2023-08-20T01:35:57;11.63;;;2.55;;
22417;SDS011;11376;50.932;4.442;2023-08-20T01:38:23;16.13;;;2.92;;
22417;SDS011;11376;50.932;4.442;2023-08-20T01:40:48;16.90;;;2.80;;
22417;SDS011;11376;50.932;4.442;2023-08-20T01:43:15;12.73;;;2.72;;
22417;SDS011;11376;50.932;4.442;2023-08-20T01:45:40;15.27;;;2.58;;
22417;SDS011;11376;50.932;4.442;2023-08-20T01:48:06;13.70;;;2.70;;
22417;SDS011;11376;50.932;4.442;2023-08-20T01:50:32;13.13;;;2.50;;
22417;SDS011;11376;50.932;4.442;2023-08-20T01:52:59;11.80;;;2.60;;
22417;SDS011;11376;50.932;4.442;2023-08-20T01:55:26;14.57;;;3.40;;
22417;SDS011;11376;50.932;4.442;2023-08-20T01:57:51;14.93;;;2.80;;
22417;SDS011;11376;50.932;4.442;2023-08-20T02:00:17;17.33;;;3.00;;
22417;SDS011;11376;50.932;4.442;2023-08-20T02:02:43;14.05;;;2.55;;
22417;SDS011;11376;50.932;4.442;2023-08-20T02:05:08;13.60;;;2.88;;
22417;SDS011;11376;50.932;4.442;2023-08-20T02:07:35;13.73;;;2.80;;
22417;SDS011;11376;50.932;4.442;2023-08-20T02:10:01;14.52;;;3.13;;
22417;SDS011;11376;50.932;4.442;2023-08-20T02:12:27;13.10;;;2.92;;
22417;SDS011;11376;50.932;4.442;2023-08-20T02:14:53;17.20;;;2.70;;
22417;SDS011;11376;50.932;4.442;2023-08-20T02:17:19;10.93;;;2.65;;
22417;SDS011;11376;50.932;4.442;2023-08-20T02:19:44;12.88;;;2.60;;
22417;SDS011;11376;50.932;4.442;2023-08-20T02:22:10;14.18;;;2.70;;
22417;SDS011;11376;50.932;4.442;2023-08-20T02:24:36;14.68;;;2.80;;
22417;SDS011;11376;50.932;4.442;2023-08-20T02:27:02;14.50;;;2.70;;
22417;SDS011;11376;50.932;4.442;2023-08-20T02:29:28;13.85;;;2.70;;
22417;SDS011;11376;50.932;4.442;2023-08-20T02:31:54;20.55;;;3.05;;
22417;SDS011;11376;50.932;4.442;2023-08-20T02:34:19;15.55;;;2.60;;
22417;SDS011;11376;50.932;4.442;2023-08-20T02:36:45;18.85;;;3.15;;
22417;SDS011;11376;50.932;4.442;2023-08-20T02:39:11;14.15;;;2.63;;
22417;SDS011;11376;50.932;4.442;2023-08-20T02:41:38;13.65;;;2.80;;
22417;SDS011;11376;50.932;4.442;2023-08-20T02:44:04;15.02;;;2.97;;
22417;SDS011;11376;50.932;4.442;2023-08-20T02:46:29;16.52;;;3.25;;
22417;SDS011;11376;50.932;4.442;2023-08-20T02:48:55;15.43;;;2.80;;
22417;SDS011;11376;50.932;4.442;2023-08-20T02:51:21;15.02;;;3.22;;
22417;SDS011;11376;50.932;4.442;2023-08-20T02:53:47;14.15;;;2.78;;
22417;SDS011;11376;50.932;4.442;2023-08-20T02:56:13;16.95;;;3.53;;
22417;SDS011;11376;50.932;4.442;2023-08-20T02:58:39;13.25;;;3.08;;
22417;SDS011;11376;50.932;4.442;2023-08-20T03:01:04;17.38;;;3.38;;
22417;SDS011;11376;50.932;4.442;2023-08-20T03:03:30;15.95;;;3.50;;
22417;SDS011;11376;50.932;4.442;2023-08-20T03:05:56;13.93;;;2.85;;
22417;SDS011;11376;50.932;4.442;2023-08-20T03:08:22;16.02;;;3.28;;
22417;SDS011;11376;50.932;4.442;2023-08-20T03:10:47;15.00;;;3.30;;
22417;SDS011;11376;50.932;4.442;2023-08-20T03:13:13;14.45;;;3.17;;
22417;SDS011;11376;50.932;4.442;2023-08-20T03:15:39;12.95;;;2.90;;
22417;SDS011;11376;50.932;4.442;2023-08-20T03:18:05;19.77;;;3.67;;
22417;SDS011;11376;50.932;4.442;2023-08-20T03:20:31;16.23;;;3.08;;
22417;SDS011;11376;50.932;4.442;2023-08-20T03:22:57;15.88;;;2.97;;
22417;SDS011;11376;50.932;4.442;2023-08-20T03:25:23;13.35;;;3.28;;
22417;SDS011;11376;50.932;4.442;2023-08-20T03:27:49;15.85;;;3.13;;
22417;SDS011;11376;50.932;4.442;2023-08-20T03:30:16;16.52;;;3.83;;
22417;SDS011;11376;50.932;4.442;2023-08-20T03:32:42;12.98;;;3.40;;
22417;SDS011;11376;50.932;4.442;2023-08-20T03:35:08;13.18;;;3.08;;
22417;SDS011;11376;50.932;4.442;2023-08-20T03:37:34;14.82;;;3.10;;
22417;SDS011;11376;50.932;4.442;2023-08-20T03:40:00;14.63;;;2.97;;
22417;SDS011;11376;50.932;4.442;2023-08-20T03:42:26;15.55;;;3.63;;
22417;SDS011;11376;50.932;4.442;2023-08-20T03:44:51;15.77;;;3.38;;
22417;SDS011;11376;50.932;4.442;2023-08-20T03:47:17;17.30;;;3.70;;
22417;SDS011;11376;50.932;4.442;2023-08-20T03:49:46;15.98;;;3.45;;
22417;SDS011;11376;50.932;4.442;2023-08-20T03:52:15;13.60;;;3.30;;
22417;SDS011;11376;50.932;4.442;2023-08-20T03:54:41;15.23;;;3.35;;
22417;SDS011;11376;50.932;4.442;2023-08-20T03:57:06;15.18;;;3.53;;
22417;SDS011;11376;50.932;4.442;2023-08-20T03:59:32;15.30;;;3.17;;
22417;SDS011;11376;50.932;4.442;2023-08-20T04:01:58;16.25;;;3.42;;
22417;SDS011;11376;50.932;4.442;2023-08-20T04:04:24;12.00;;;3.30;;
22417;SDS011;11376;50.932;4.442;2023-08-20T04:06:50;15.68;;;3.53;;
22417;SDS011;11376;50.932;4.442;2023-08-20T04:09:16;18.75;;;3.40;;
22417;SDS011;11376;50.932;4.442;2023-08-20T04:11:42;19.08;;;4.15;;
22417;SDS011;11376;50.932;4.442;2023-08-20T04:14:07;17.67;;;3.75;;
22417;SDS011;11376;50.932;4.442;2023-08-20T04:16:33;13.07;;;3.40;;
22417;SDS011;11376;50.932;4.442;2023-08-20T04:18:59;20.30;;;3.60;;
22417;SDS011;11376;50.932;4.442;2023-08-20T04:21:24;15.70;;;4.00;;
22417;SDS011;11376;50.932;4.442;2023-08-20T04:23:50;15.35;;;3.72;;
22417;SDS011;11376;50.932;4.442;2023-08-20T04:26:16;16.92;;;3.47;;
22417;SDS011;11376;50.932;4.442;2023-08-20T04:28:42;12.95;;;3.35;;
22417;SDS011;11376;50.932;4.442;2023-08-20T04:31:07;14.93;;;3.35;;
22417;SDS011;11376;50.932;4.442;2023-08-20T04:33:33;11.52;;;3.15;;
22417;SDS011;11376;50.932;4.442;2023-08-20T04:35:59;10.82;;;3.25;;
22417;SDS011;11376;50.932;4.442;2023-08-20T04:38:25;16.05;;;3.60;;
22417;SDS011;11376;50.932;4.442;2023-08-20T04:40:51;15.48;;;3.47;;
22417;SDS011;11376;50.932;4.442;2023-08-20T04:43:16;18.00;;;3.75;;
22417;SDS011;11376;50.932;4.442;2023-08-20T04:45:42;19.15;;;3.53;;
22417;SDS011;11376;50.932;4.442;2023-08-20T04:48:08;20.95;;;3.38;;
22417;SDS011;11376;50.932;4.442;2023-08-20T04:50:34;16.15;;;3.55;;
22417;SDS011;11376;50.932;4.442;2023-08-20T04:53:00;17.75;;;3.92;;
22417;SDS011;11376;50.932;4.442;2023-08-20T04:55:26;13.13;;;3.38;;
22417;SDS011;11376;50.932;4.442;2023-08-20T04:57:52;13.98;;;3.40;;
22417;SDS011;11376;50.932;4.442;2023-08-20T05:00:18;11.27;;;3.40;;
22417;SDS011;11376;50.932;4.442;2023-08-20T05:02:44;14.52;;;3.20;;
22417;SDS011;11376;50.932;4.442;2023-08-20T05:05:10;13.10;;;3.40;;
22417;SDS011;11376;50.932;4.442;2023-08-20T05:07:36;15.98;;;3.50;;
22417;SDS011;11376;50.932;4.442;2023-08-20T05:10:02;15.15;;;3.25;;
22417;SDS011;11376;50.932;4.442;2023-08-20T05:12:28;14.60;;;3.63;;
22417;SDS011;11376;50.932;4.442;2023-08-20T05:14:54;15.10;;;4.10;;
22417;SDS011;11376;50.932;4.442;2023-08-20T05:17:20;12.70;;;3.50;;
22417;SDS011;11376;50.932;4.442;2023-08-20T05:19:45;14.40;;;3.53;;
22417;SDS011;11376;50.932;4.442;2023-08-20T05:22:11;17.23;;;3.53;;
22417;SDS011;11376;50.932;4.442;2023-08-20T05:24:37;15.73;;;3.70;;
22417;SDS011;11376;50.932;4.442;2023-08-20T05:27:04;14.30;;;3.63;;
22417;SDS011;11376;50.932;4.442;2023-08-20T05:29:30;13.10;;;3.42;;
22417;SDS011;11376;50.932;4.442;2023-08-20T05:31:56;16.40;;;3.90;;
22417;SDS011;11376;50.932;4.442;2023-08-20T05:34:22;16.65;;;3.75;;
22417;SDS011;11376;50.932;4.442;2023-08-20T05:36:47;14.85;;;3.92;;
22417;SDS011;11376;50.932;4.442;2023-08-20T05:39:13;17.83;;;3.90;;
22417;SDS011;11376;50.932;4.442;2023-08-20T05:41:39;12.23;;;3.53;;
22417;SDS011;11376;50.932;4.442;2023-08-20T05:44:04;10.40;;;3.40;;
22417;SDS011;11376;50.932;4.442;2023-08-20T05:46:30;12.57;;;3.65;;
22417;SDS011;11376;50.932;4.442;2023-08-20T05:48:56;13.13;;;3.50;;
22417;SDS011;11376;50.932;4.442;2023-08-20T05:51:22;14.77;;;3.63;;
22417;SDS011;11376;50.932;4.442;2023-08-20T05:53:47;16.45;;;3.70;;
22417;SDS011;11376;50.932;4.442;2023-08-20T05:56:13;12.82;;;3.33;;
22417;SDS011;11376;50.932;4.442;2023-08-20T05:58:39;12.48;;;4.10;;
22417;SDS011;11376;50.932;4.442;2023-08-20T06:01:04;14.63;;;3.55;;
22417;SDS011;11376;50.932;4.442;2023-08-20T06:03:30;10.65;;;3.50;;
22417;SDS011;11376;50.932;4.442;2023-08-20T06:05:59;15.32;;;3.75;;
22417;SDS011;11376;50.932;4.442;2023-08-20T06:08:24;14.88;;;3.80;;
22417;SDS011;11376;50.932;4.442;2023-08-20T06:10:50;12.10;;;3.45;;
22417;SDS011;11376;50.932;4.442;2023-08-20T06:13:17;14.32;;;3.78;;
22417;SDS011;11376;50.932;4.442;2023-08-20T06:15:42;10.50;;;3.55;;
22417;SDS011;11376;50.932;4.442;2023-08-20T06:18:08;16.00;;;3.88;;
22417;SDS011;11376;50.932;4.442;2023-08-20T06:20:34;13.63;;;3.80;;
22417;SDS011;11376;50.932;4.442;2023-08-20T06:22:59;16.95;;;4.00;;
22417;SDS011;11376;50.932;4.442;2023-08-20T06:25:25;9.38;;;3.22;;
22417;SDS011;11376;50.932;4.442;2023-08-20T06:27:51;12.07;;;3.10;;
22417;SDS011;11376;50.932;4.442;2023-08-20T06:30:16;13.38;;;3.33;;
22417;SDS011;11376;50.932;4.442;2023-08-20T06:32:43;11.88;;;3.08;;
22417;SDS011;11376;50.932;4.442;2023-08-20T06:35:09;13.55;;;3.05;;
22417;SDS011;11376;50.932;4.442;2023-08-20T06:37:36;12.30;;;3.22;;
22417;SDS011;11376;50.932;4.442;2023-08-20T06:40:03;11.98;;;2.90;;
22417;SDS011;11376;50.932;4.442;2023-08-20T06:42:29;16.95;;;2.80;;
22417;SDS011;11376;50.932;4.442;2023-08-20T06:44:55;11.45;;;2.40;;
22417;SDS011;11376;50.932;4.442;2023-08-20T06:47:21;9.65;;;2.20;;
22417;SDS011;11376;50.932;4.442;2023-08-20T06:49:46;11.27;;;2.03;;
22417;SDS011;11376;50.932;4.442;2023-08-20T06:52:12;8.98;;;1.60;;
22417;SDS011;11376;50.932;4.442;2023-08-20T06:54:38;11.05;;;2.40;;
22417;SDS011;11376;50.932;4.442;2023-08-20T06:57:04;14.20;;;2.55;;
22417;SDS011;11376;50.932;4.442;2023-08-20T06:59:30;15.57;;;2.42;;
22417;SDS011;11376;50.932;4.442;2023-08-20T07:01:55;13.60;;;1.95;;
22417;SDS011;11376;50.932;4.442;2023-08-20T07:04:21;10.23;;;1.88;;
22417;SDS011;11376;50.932;4.442;2023-08-20T07:06:47;11.60;;;1.67;;
22417;SDS011;11376;50.932;4.442;2023-08-20T07:09:12;10.73;;;1.90;;
22417;SDS011;11376;50.932;4.442;2023-08-20T07:11:38;10.45;;;1.73;;
22417;SDS011;11376;50.932;4.442;2023-08-20T07:14:04;10.55;;;1.40;;
22417;SDS011;11376;50.932;4.442;2023-08-20T07:16:30;6.80;;;1.52;;
22417;SDS011;11376;50.932;4.442;2023-08-20T07:18:56;8.40;;;1.63;;
22417;SDS011;11376;50.932;4.442;2023-08-20T07:21:22;8.68;;;1.77;;
22417;SDS011;11376;50.932;4.442;2023-08-20T07:23:48;7.28;;;1.70;;
22417;SDS011;11376;50.932;4.442;2023-08-20T07:26:13;9.70;;;1.63;;
22417;SDS011;11376;50.932;4.442;2023-08-20T07:28:40;9.85;;;1.75;;
22417;SDS011;11376;50.932;4.442;2023-08-20T07:31:32;8.93;;;1.60;;
22417;SDS011;11376;50.932;4.442;2023-08-20T07:33:59;12.77;;;1.70;;
22417;SDS011;11376;50.932;4.442;2023-08-20T07:36:26;8.30;;;1.70;;
22417;SDS011;11376;50.932;4.442;2023-08-20T07:38:52;8.50;;;1.48;;
22417;SDS011;11376;50.932;4.442;2023-08-20T07:41:19;8.57;;;1.63;;
22417;SDS011;11376;50.932;4.442;2023-08-20T07:43:45;11.68;;;1.60;;
22417;SDS011;11376;50.932;4.442;2023-08-20T07:46:12;10.95;;;1.65;;
22417;SDS011;11376;50.932;4.442;2023-08-20T07:48:38;7.22;;;1.30;;
22417;SDS011;11376;50.932;4.442;2023-08-20T07:51:04;6.95;;;1.45;;
22417;SDS011;11376;50.932;4.442;2023-08-20T07:53:31;10.02;;;1.60;;
22417;SDS011;11376;50.932;4.442;2023-08-20T07:55:57;8.10;;;1.65;;
22417;SDS011;11376;50.932;4.442;2023-08-20T07:58:23;10.85;;;1.88;;
22417;SDS011;11376;50.932;4.442;2023-08-20T08:00:49;8.45;;;1.45;;
22417;SDS011;11376;50.932;4.442;2023-08-20T08:03:15;11.25;;;1.90;;
22417;SDS011;11376;50.932;4.442;2023-08-20T08:05:42;10.70;;;1.60;;
22417;SDS011;11376;50.932;4.442;2023-08-20T08:08:17;9.52;;;1.70;;
22417;SDS011;11376;50.932;4.442;2023-08-20T08:10:43;7.35;;;1.63;;
22417;SDS011;11376;50.932;4.442;2023-08-20T08:13:14;7.43;;;1.42;;
22417;SDS011;11376;50.932;4.442;2023-08-20T08:15:41;7.25;;;1.50;;
22417;SDS011;11376;50.932;4.442;2023-08-20T08:18:07;10.88;;;1.55;;
22417;SDS011;11376;50.932;4.442;2023-08-20T08:20:33;7.18;;;1.40;;
22417;SDS011;11376;50.932;4.442;2023-08-20T08:22:59;9.55;;;1.80;;
22417;SDS011;11376;50.932;4.442;2023-08-20T08:25:26;10.32;;;1.60;;
22417;SDS011;11376;50.932;4.442;2023-08-20T08:27:52;7.68;;;1.38;;
22417;SDS011;11376;50.932;4.442;2023-08-20T08:30:18;8.82;;;1.50;;
22417;SDS011;11376;50.932;4.442;2023-08-20T08:32:44;6.93;;;1.60;;
22417;SDS011;11376;50.932;4.442;2023-08-20T08:35:10;5.05;;;1.20;;
22417;SDS011;11376;50.932;4.442;2023-08-20T08:37:36;7.43;;;1.10;;
22417;SDS011;11376;50.932;4.442;2023-08-20T08:40:03;4.82;;;1.15;;
22417;SDS011;11376;50.932;4.442;2023-08-20T08:42:34;4.50;;;0.90;;
22417;SDS011;11376;50.932;4.442;2023-08-20T08:45:00;6.57;;;1.05;;
22417;SDS011;11376;50.932;4.442;2023-08-20T08:47:27;6.68;;;1.05;;
22417;SDS011;11376;50.932;4.442;2023-08-20T08:49:56;6.97;;;1.30;;
22417;SDS011;11376;50.932;4.442;2023-08-20T08:52:22;5.75;;;1.30;;
22417;SDS011;11376;50.932;4.442;2023-08-20T08:54:48;6.47;;;1.15;;
22417;SDS011;11376;50.932;4.442;2023-08-20T08:57:14;6.40;;;1.20;;
22417;SDS011;11376;50.932;4.442;2023-08-20T08:59:41;5.45;;;1.15;;
22417;SDS011;11376;50.932;4.442;2023-08-20T09:02:10;3.92;;;1.00;;
22417;SDS011;11376;50.932;4.442;2023-08-20T09:04:40;3.83;;;0.90;;
22417;SDS011;11376;50.932;4.442;2023-08-20T09:07:15;2.20;;;0.57;;
22417;SDS011;11376;50.932;4.442;2023-08-20T09:09:42;3.00;;;0.30;;
22417;SDS011;11376;50.932;4.442;2023-08-20T09:12:15;2.30;;;0.50;;
22417;SDS011;11376;50.932;4.442;2023-08-20T09:14:45;1.55;;;0.30;;
22417;SDS011;11376;50.932;4.442;2023-08-20T09:17:13;1.98;;;0.50;;
22417;SDS011;11376;50.932;4.442;2023-08-20T09:19:39;2.92;;;0.40;;
22417;SDS011;11376;50.932;4.442;2023-08-20T09:22:08;1.60;;;0.40;;
22417;SDS011;11376;50.932;4.442;2023-08-20T09:24:38;2.10;;;0.40;;
22417;SDS011;11376;50.932;4.442;2023-08-20T09:27:04;2.13;;;0.35;;
22417;SDS011;11376;50.932;4.442;2023-08-20T09:29:49;1.65;;;0.32;;
22417;SDS011;11376;50.932;4.442;2023-08-20T09:32:23;3.88;;;0.60;;
22417;SDS011;11376;50.932;4.442;2023-08-20T09:34:50;2.33;;;0.38;;
22417;SDS011;11376;50.932;4.442;2023-08-20T09:37:19;2.22;;;0.40;;
22417;SDS011;11376;50.932;4.442;2023-08-20T09:39:46;3.53;;;0.40;;
22417;SDS011;11376;50.932;4.442;2023-08-20T09:42:13;1.38;;;0.40;;
22417;SDS011;11376;50.932;4.442;2023-08-20T09:44:39;3.08;;;0.55;;
22417;SDS011;11376;50.932;4.442;2023-08-20T09:47:07;3.58;;;0.80;;
22417;SDS011;11376;50.932;4.442;2023-08-20T09:49:36;2.22;;;0.43;;
22417;SDS011;11376;50.932;4.442;2023-08-20T09:52:07;3.10;;;0.52;;
22417;SDS011;11376;50.932;4.442;2023-08-20T09:54:36;2.30;;;0.47;;
22417;SDS011;11376;50.932;4.442;2023-08-20T09:57:42;2.63;;;0.40;;
22417;SDS011;11376;50.932;4.442;2023-08-20T10:00:08;2.30;;;0.50;;
22417;SDS011;11376;50.932;4.442;2023-08-20T10:02:35;4.68;;;1.10;;
22417;SDS011;11376;50.932;4.442;2023-08-20T10:05:03;2.13;;;0.50;;
22417;SDS011;11376;50.932;4.442;2023-08-20T10:07:31;2.83;;;0.45;;
22417;SDS011;11376;50.932;4.442;2023-08-20T10:10:01;2.90;;;0.40;;
22417;SDS011;11376;50.932;4.442;2023-08-20T10:12:29;2.42;;;0.45;;
22417;SDS011;11376;50.932;4.442;2023-08-20T10:14:55;1.13;;;0.30;;
22417;SDS011;11376;50.932;4.442;2023-08-20T10:17:22;2.17;;;0.50;;
22417;SDS011;11376;50.932;4.442;2023-08-20T10:19:48;5.70;;;0.70;;
22417;SDS011;11376;50.932;4.442;2023-08-20T10:22:14;2.75;;;0.60;;
22417;SDS011;11376;50.932;4.442;2023-08-20T10:24:40;3.28;;;0.50;;
22417;SDS011;11376;50.932;4.442;2023-08-20T10:27:10;1.80;;;0.50;;
22417;SDS011;11376;50.932;4.442;2023-08-20T10:29:37;3.20;;;1.00;;
22417;SDS011;11376;50.932;4.442;2023-08-20T10:32:10;1.17;;;0.38;;
22417;SDS011;11376;50.932;4.442;2023-08-20T10:34:37;3.58;;;0.60;;
22417;SDS011;11376;50.932;4.442;2023-08-20T10:37:14;4.82;;;0.55;;
22417;SDS011;11376;50.932;4.442;2023-08-20T10:39:40;4.75;;;0.50;;
22417;SDS011;11376;50.932;4.442;2023-08-20T10:45:01;3.67;;;0.63;;
22417;SDS011;11376;50.932;4.442;2023-08-20T10:50:09;6.10;;;0.68;;
22417;SDS011;11376;50.932;4.442;2023-08-20T10:52:55;4.22;;;1.00;;
22417;SDS011;11376;50.932;4.442;2023-08-20T10:55:21;1.50;;;0.50;;
22417;SDS011;11376;50.932;4.442;2023-08-20T10:57:54;3.83;;;0.80;;
22417;SDS011;11376;50.932;4.442;2023-08-20T11:00:24;2.45;;;0.60;;
22417;SDS011;11376;50.932;4.442;2023-08-20T11:02:50;3.03;;;0.70;;
22417;SDS011;11376;50.932;4.442;2023-08-20T11:05:18;3.17;;;0.75;;
22417;SDS011;11376;50.932;4.442;2023-08-20T11:07:46;2.47;;;0.70;;
22417;SDS011;11376;50.932;4.442;2023-08-20T11:10:14;2.72;;;0.63;;
22417;SDS011;11376;50.932;4.442;2023-08-20T11:12:41;3.00;;;0.65;;
22417;SDS011;11376;50.932;4.442;2023-08-20T11:15:08;2.80;;;0.70;;
22417;SDS011;11376;50.932;4.442;2023-08-20T11:17:41;3.17;;;0.82;;
22417;SDS011;11376;50.932;4.442;2023-08-20T11:20:08;2.55;;;0.70;;
22417;SDS011;11376;50.932;4.442;2023-08-20T11:22:36;2.50;;;0.70;;
22417;SDS011;11376;50.932;4.442;2023-08-20T11:25:02;3.15;;;0.70;;
22417;SDS011;11376;50.932;4.442;2023-08-20T11:27:29;2.72;;;0.75;;
22417;SDS011;11376;50.932;4.442;2023-08-20T11:29:55;4.00;;;0.90;;
22417;SDS011;11376;50.932;4.442;2023-08-20T11:32:25;4.35;;;0.90;;
22417;SDS011;11376;50.932;4.442;2023-08-20T11:34:51;2.72;;;0.80;;
22417;SDS011;11376;50.932;4.442;2023-08-20T11:37:19;3.45;;;0.90;;
22417;SDS011;11376;50.932;4.442;2023-08-20T11:39:48;3.60;;;0.98;;
22417;SDS011;11376;50.932;4.442;2023-08-20T11:42:14;5.15;;;0.85;;
22417;SDS011;11376;50.932;4.442;2023-08-20T11:44:45;3.28;;;1.13;;
22417;SDS011;11376;50.932;4.442;2023-08-20T11:47:18;3.17;;;0.80;;
22417;SDS011;11376;50.932;4.442;2023-08-20T11:49:44;3.67;;;0.75;;
22417;SDS011;11376;50.932;4.442;2023-08-20T11:52:11;3.67;;;0.80;;
22417;SDS011;11376;50.932;4.442;2023-08-20T11:54:42;4.05;;;0.90;;
22417;SDS011;11376;50.932;4.442;2023-08-20T11:57:08;5.72;;;1.38;;
22417;SDS011;11376;50.932;4.442;2023-08-20T11:59:33;3.67;;;1.00;;
22417;SDS011;11376;50.932;4.442;2023-08-20T12:02:00;4.97;;;0.85;;
22417;SDS011;11376;50.932;4.442;2023-08-20T12:04:28;2.70;;;0.90;;
22417;SDS011;11376;50.932;4.442;2023-08-20T12:07:04;3.03;;;1.00;;
22417;SDS011;11376;50.932;4.442;2023-08-20T12:09:31;2.70;;;1.10;;
22417;SDS011;11376;50.932;4.442;2023-08-20T12:11:57;3.75;;;1.20;;
22417;SDS011;11376;50.932;4.442;2023-08-20T12:14:24;4.15;;;1.20;;
22417;SDS011;11376;50.932;4.442;2023-08-20T12:16:49;4.18;;;1.10;;
22417;SDS011;11376;50.932;4.442;2023-08-20T12:19:18;4.57;;;1.20;;
22417;SDS011;11376;50.932;4.442;2023-08-20T12:21:44;3.78;;;0.95;;
22417;SDS011;11376;50.932;4.442;2023-08-20T12:24:10;4.97;;;1.30;;
22417;SDS011;11376;50.932;4.442;2023-08-20T12:26:36;3.97;;;1.40;;
22417;SDS011;11376;50.932;4.442;2023-08-20T12:29:02;4.30;;;1.30;;
22417;SDS011;11376;50.932;4.442;2023-08-20T12:31:28;3.22;;;1.23;;
22417;SDS011;11376;50.932;4.442;2023-08-20T12:33:54;3.08;;;1.05;;
22417;SDS011;11376;50.932;4.442;2023-08-20T12:36:20;4.03;;;1.10;;
22417;SDS011;11376;50.932;4.442;2023-08-20T12:38:45;4.65;;;1.27;;
22417;SDS011;11376;50.932;4.442;2023-08-20T12:41:11;4.57;;;0.90;;
22417;SDS011;11376;50.932;4.442;2023-08-20T12:43:37;5.07;;;0.95;;
22417;SDS011;11376;50.932;4.442;2023-08-20T12:46:03;4.30;;;1.10;;
22417;SDS011;11376;50.932;4.442;2023-08-20T12:48:28;2.03;;;0.70;;
22417;SDS011;11376;50.932;4.442;2023-08-20T12:50:55;5.50;;;1.27;;
22417;SDS011;11376;50.932;4.442;2023-08-20T12:53:21;3.72;;;1.10;;
22417;SDS011;11376;50.932;4.442;2023-08-20T12:55:47;3.90;;;1.08;;
22417;SDS011;11376;50.932;4.442;2023-08-20T12:58:13;2.80;;;1.08;;
22417;SDS011;11376;50.932;4.442;2023-08-20T13:00:38;4.63;;;1.10;;
22417;SDS011;11376;50.932;4.442;2023-08-20T13:03:04;3.15;;;0.90;;
22417;SDS011;11376;50.932;4.442;2023-08-20T13:05:30;4.22;;;1.30;;
22417;SDS011;11376;50.932;4.442;2023-08-20T13:07:56;3.50;;;1.17;;
22417;SDS011;11376;50.932;4.442;2023-08-20T13:10:23;5.07;;;1.23;;
22417;SDS011;11376;50.932;4.442;2023-08-20T13:12:50;3.67;;;1.10;;
22417;SDS011;11376;50.932;4.442;2023-08-20T13:15:18;4.82;;;1.30;;
22417;SDS011;11376;50.932;4.442;2023-08-20T13:17:46;6.13;;;1.42;;
22417;SDS011;11376;50.932;4.442;2023-08-20T13:20:13;3.25;;;1.02;;
22417;SDS011;11376;50.932;4.442;2023-08-20T13:22:40;4.55;;;1.10;;
22417;SDS011;11376;50.932;4.442;2023-08-20T13:25:06;4.13;;;1.20;;
22417;SDS011;11376;50.932;4.442;2023-08-20T13:27:32;4.90;;;1.17;;
22417;SDS011;11376;50.932;4.442;2023-08-20T13:29:58;5.18;;;1.00;;
22417;SDS011;11376;50.932;4.442;2023-08-20T13:32:24;3.95;;;1.00;;
22417;SDS011;11376;50.932;4.442;2023-08-20T13:34:50;4.65;;;1.50;;
22417;SDS011;11376;50.932;4.442;2023-08-20T13:37:17;4.75;;;1.60;;
22417;SDS011;11376;50.932;4.442;2023-08-20T13:39:42;2.88;;;1.10;;
22417;SDS011;11376;50.932;4.442;2023-08-20T13:42:08;3.97;;;1.05;;
22417;SDS011;11376;50.932;4.442;2023-08-20T13:44:34;5.47;;;2.80;;
22417;SDS011;11376;50.932;4.442;2023-08-20T13:46:59;4.07;;;1.08;;
22417;SDS011;11376;50.932;4.442;2023-08-20T13:49:25;5.63;;;1.10;;
22417;SDS011;11376;50.932;4.442;2023-08-20T13:51:51;4.60;;;1.00;;
22417;SDS011;11376;50.932;4.442;2023-08-20T13:54:17;5.47;;;1.30;;
22417;SDS011;11376;50.932;4.442;2023-08-20T13:56:42;4.03;;;1.15;;
22417;SDS011;11376;50.932;4.442;2023-08-20T13:59:11;3.92;;;0.90;;
22417;SDS011;11376;50.932;4.442;2023-08-20T14:01:36;5.18;;;1.00;;
22417;SDS011;11376;50.932;4.442;2023-08-20T14:04:02;3.33;;;0.93;;
22417;SDS011;11376;50.932;4.442;2023-08-20T14:06:29;4.20;;;1.02;;
22417;SDS011;11376;50.932;4.442;2023-08-20T14:08:55;5.63;;;1.27;;
22417;SDS011;11376;50.932;4.442;2023-08-20T14:11:21;3.50;;;1.00;;
22417;SDS011;11376;50.932;4.442;2023-08-20T14:13:49;3.75;;;1.08;;
22417;SDS011;11376;50.932;4.442;2023-08-20T14:16:15;4.53;;;1.10;;
22417;SDS011;11376;50.932;4.442;2023-08-20T14:18:40;4.00;;;0.80;;
22417;SDS011;11376;50.932;4.442;2023-08-20T14:21:06;5.15;;;1.00;;
22417;SDS011;11376;50.932;4.442;2023-08-20T14:23:32;4.60;;;1.25;;
22417;SDS011;11376;50.932;4.442;2023-08-20T14:25:58;4.53;;;1.23;;
22417;SDS011;11376;50.932;4.442;2023-08-20T14:28:23;7.35;;;1.13;;
22417;SDS011;11376;50.932;4.442;2023-08-20T14:30:49;4.00;;;1.13;;
22417;SDS011;11376;50.932;4.442;2023-08-20T14:33:16;2.90;;;1.00;;
22417;SDS011;11376;50.932;4.442;2023-08-20T14:35:42;4.22;;;1.17;;
22417;SDS011;11376;50.932;4.442;2023-08-20T14:38:07;5.25;;;1.20;;
22417;SDS011;11376;50.932;4.442;2023-08-20T14:40:36;4.15;;;1.00;;
22417;SDS011;11376;50.932;4.442;2023-08-20T14:43:05;5.93;;;1.23;;
22417;SDS011;11376;50.932;4.442;2023-08-20T14:45:33;4.97;;;1.20;;
22417;SDS011;11376;50.932;4.442;2023-08-20T14:48:00;5.90;;;1.20;;
22417;SDS011;11376;50.932;4.442;2023-08-20T14:50:25;4.82;;;1.02;;